sensor_id;sensor_type;location;lat;lon;timestamp;P1;durP1;ratioP1;P2;durP2;ratioP2
81544;SDS011;70990;50.618;7.346;2023-08-21T00:01:27;15.23;;;10.73;;
81544;SDS011;70990;50.618;7.346;2023-08-21T00:03:54;18.02;;;11.15;;
81544;SDS011;70990;50.618;7.346;2023-08-21T00:06:20;15.65;;;10.95;;
81544;SDS011;70990;50.618;7.346;2023-08-21T00:08:47;17.38;;;11.07;;
81544;SDS011;70990;50.618;7.346;2023-08-21T00:11:13;16.55;;;10.40;;
81544;SDS011;70990;50.618;7.346;2023-08-21T00:13:40;15.50;;;10.30;;
81544;SDS011;70990;50.618;7.346;2023-08-21T00:16:06;16.50;;;10.52;;
81544;SDS011;70990;50.618;7.346;2023-08-21T00:18:33;13.13;;;9.65;;
81544;SDS011;70990;50.618;7.346;2023-08-21T00:21:00;15.68;;;10.63;;
81544;SDS011;70990;50.618;7.346;2023-08-21T00:23:26;14.05;;;10.68;;
81544;SDS011;70990;50.618;7.346;2023-08-21T00:25:53;12.93;;;9.75;;
81544;SDS011;70990;50.618;7.346;2023-08-21T00:28:19;15.00;;;11.18;;
81544;SDS011;70990;50.618;7.346;2023-08-21T00:30:46;15.15;;;10.27;;
81544;SDS011;70990;50.618;7.346;2023-08-21T00:33:12;17.02;;;10.68;;
81544;SDS011;70990;50.618;7.346;2023-08-21T00:35:39;18.08;;;10.90;;
81544;SDS011;70990;50.618;7.346;2023-08-21T00:38:05;16.63;;;10.70;;
81544;SDS011;70990;50.618;7.346;2023-08-21T00:40:33;17.45;;;11.50;;
81544;SDS011;70990;50.618;7.346;2023-08-21T00:42:59;15.73;;;10.02;;
81544;SDS011;70990;50.618;7.346;2023-08-21T00:45:26;15.30;;;10.18;;
81544;SDS011;70990;50.618;7.346;2023-08-21T00:47:53;18.52;;;10.60;;
81544;SDS011;70990;50.618;7.346;2023-08-21T00:50:20;16.35;;;9.52;;
81544;SDS011;70990;50.618;7.346;2023-08-21T00:52:46;14.30;;;10.15;;
81544;SDS011;70990;50.618;7.346;2023-08-21T00:55:13;15.80;;;11.20;;
81544;SDS011;70990;50.618;7.346;2023-08-21T00:57:40;14.80;;;10.88;;
81544;SDS011;70990;50.618;7.346;2023-08-21T01:00:07;14.95;;;10.85;;
81544;SDS011;70990;50.618;7.346;2023-08-21T01:02:34;15.48;;;11.25;;
81544;SDS011;70990;50.618;7.346;2023-08-21T01:05:01;15.52;;;10.52;;
81544;SDS011;70990;50.618;7.346;2023-08-21T01:07:28;15.80;;;10.82;;
81544;SDS011;70990;50.618;7.346;2023-08-21T01:09:58;14.27;;;9.70;;
81544;SDS011;70990;50.618;7.346;2023-08-21T01:12:46;16.38;;;10.15;;
81544;SDS011;70990;50.618;7.346;2023-08-21T01:15:22;14.65;;;9.68;;
81544;SDS011;70990;50.618;7.346;2023-08-21T01:17:49;15.93;;;10.75;;
81544;SDS011;70990;50.618;7.346;2023-08-21T01:20:16;15.13;;;10.68;;
81544;SDS011;70990;50.618;7.346;2023-08-21T01:22:44;18.08;;;10.68;;
81544;SDS011;70990;50.618;7.346;2023-08-21T01:25:11;17.98;;;10.35;;
81544;SDS011;70990;50.618;7.346;2023-08-21T01:27:45;14.73;;;11.10;;
81544;SDS011;70990;50.618;7.346;2023-08-21T01:30:14;19.02;;;10.57;;
81544;SDS011;70990;50.618;7.346;2023-08-21T01:35:45;13.75;;;10.85;;
81544;SDS011;70990;50.618;7.346;2023-08-21T01:38:12;15.35;;;10.77;;
81544;SDS011;70990;50.618;7.346;2023-08-21T01:40:39;15.07;;;10.95;;
81544;SDS011;70990;50.618;7.346;2023-08-21T01:43:06;17.23;;;11.77;;
81544;SDS011;70990;50.618;7.346;2023-08-21T01:45:33;17.17;;;11.43;;
81544;SDS011;70990;50.618;7.346;2023-08-21T01:47:59;17.67;;;11.25;;
81544;SDS011;70990;50.618;7.346;2023-08-21T01:50:27;15.68;;;10.73;;
81544;SDS011;70990;50.618;7.346;2023-08-21T01:52:54;16.55;;;10.38;;
81544;SDS011;70990;50.618;7.346;2023-08-21T01:55:20;17.55;;;10.32;;
81544;SDS011;70990;50.618;7.346;2023-08-21T01:57:48;18.05;;;11.55;;
81544;SDS011;70990;50.618;7.346;2023-08-21T02:00:14;17.00;;;11.50;;
81544;SDS011;70990;50.618;7.346;2023-08-21T02:02:42;15.43;;;10.63;;
81544;SDS011;70990;50.618;7.346;2023-08-21T02:05:09;17.73;;;11.00;;
81544;SDS011;70990;50.618;7.346;2023-08-21T02:07:37;15.48;;;10.75;;
81544;SDS011;70990;50.618;7.346;2023-08-21T02:10:04;16.35;;;10.98;;
81544;SDS011;70990;50.618;7.346;2023-08-21T02:12:32;19.75;;;11.75;;
81544;SDS011;70990;50.618;7.346;2023-08-21T02:15:09;16.92;;;11.68;;
81544;SDS011;70990;50.618;7.346;2023-08-21T02:17:36;16.58;;;11.00;;
81544;SDS011;70990;50.618;7.346;2023-08-21T02:20:03;18.15;;;10.68;;
81544;SDS011;70990;50.618;7.346;2023-08-21T02:22:30;16.25;;;11.48;;
81544;SDS011;70990;50.618;7.346;2023-08-21T02:24:56;15.75;;;10.75;;
81544;SDS011;70990;50.618;7.346;2023-08-21T02:27:23;14.70;;;10.10;;
81544;SDS011;70990;50.618;7.346;2023-08-21T02:29:50;19.50;;;10.70;;
81544;SDS011;70990;50.618;7.346;2023-08-21T02:32:17;16.70;;;10.95;;
81544;SDS011;70990;50.618;7.346;2023-08-21T02:34:43;14.25;;;9.25;;
81544;SDS011;70990;50.618;7.346;2023-08-21T02:37:10;16.02;;;9.93;;
81544;SDS011;70990;50.618;7.346;2023-08-21T02:39:36;13.95;;;9.65;;
81544;SDS011;70990;50.618;7.346;2023-08-21T02:42:03;16.85;;;10.32;;
81544;SDS011;70990;50.618;7.346;2023-08-21T02:44:30;16.17;;;11.02;;
81544;SDS011;70990;50.618;7.346;2023-08-21T02:46:57;15.32;;;10.15;;
81544;SDS011;70990;50.618;7.346;2023-08-21T02:49:23;15.63;;;9.90;;
81544;SDS011;70990;50.618;7.346;2023-08-21T02:51:50;15.63;;;9.77;;
81544;SDS011;70990;50.618;7.346;2023-08-21T02:54:16;16.42;;;10.38;;
81544;SDS011;70990;50.618;7.346;2023-08-21T02:56:43;17.17;;;10.52;;
81544;SDS011;70990;50.618;7.346;2023-08-21T02:59:10;17.95;;;11.88;;
81544;SDS011;70990;50.618;7.346;2023-08-21T03:01:36;18.92;;;10.68;;
81544;SDS011;70990;50.618;7.346;2023-08-21T03:04:03;17.55;;;11.63;;
81544;SDS011;70990;50.618;7.346;2023-08-21T03:06:30;14.52;;;10.55;;
81544;SDS011;70990;50.618;7.346;2023-08-21T03:08:56;17.63;;;11.05;;
81544;SDS011;70990;50.618;7.346;2023-08-21T03:11:23;22.55;;;11.73;;
81544;SDS011;70990;50.618;7.346;2023-08-21T03:13:50;16.38;;;10.70;;
81544;SDS011;70990;50.618;7.346;2023-08-21T03:16:17;17.05;;;12.13;;
81544;SDS011;70990;50.618;7.346;2023-08-21T03:18:56;21.23;;;12.35;;
81544;SDS011;70990;50.618;7.346;2023-08-21T03:21:26;18.23;;;12.23;;
81544;SDS011;70990;50.618;7.346;2023-08-21T03:23:55;24.48;;;12.02;;
81544;SDS011;70990;50.618;7.346;2023-08-21T03:26:25;18.15;;;11.68;;
81544;SDS011;70990;50.618;7.346;2023-08-21T03:28:53;17.83;;;11.73;;
81544;SDS011;70990;50.618;7.346;2023-08-21T03:31:20;19.02;;;13.02;;
81544;SDS011;70990;50.618;7.346;2023-08-21T03:33:47;18.67;;;12.75;;
81544;SDS011;70990;50.618;7.346;2023-08-21T03:36:17;19.13;;;11.80;;
81544;SDS011;70990;50.618;7.346;2023-08-21T03:38:44;20.02;;;13.45;;
81544;SDS011;70990;50.618;7.346;2023-08-21T03:41:11;22.40;;;12.88;;
81544;SDS011;70990;50.618;7.346;2023-08-21T03:43:38;17.65;;;12.25;;
81544;SDS011;70990;50.618;7.346;2023-08-21T03:46:04;21.65;;;12.50;;
81544;SDS011;70990;50.618;7.346;2023-08-21T03:48:31;23.45;;;14.02;;
81544;SDS011;70990;50.618;7.346;2023-08-21T03:51:00;21.33;;;13.60;;
81544;SDS011;70990;50.618;7.346;2023-08-21T03:53:27;19.80;;;12.80;;
81544;SDS011;70990;50.618;7.346;2023-08-21T03:55:54;17.95;;;12.32;;
81544;SDS011;70990;50.618;7.346;2023-08-21T03:58:20;22.30;;;11.68;;
81544;SDS011;70990;50.618;7.346;2023-08-21T04:00:47;16.58;;;11.25;;
81544;SDS011;70990;50.618;7.346;2023-08-21T04:03:14;18.60;;;12.00;;
81544;SDS011;70990;50.618;7.346;2023-08-21T04:05:40;19.48;;;10.82;;
81544;SDS011;70990;50.618;7.346;2023-08-21T04:08:07;16.92;;;11.27;;
81544;SDS011;70990;50.618;7.346;2023-08-21T04:10:33;18.70;;;12.38;;
81544;SDS011;70990;50.618;7.346;2023-08-21T04:13:00;17.55;;;12.40;;
81544;SDS011;70990;50.618;7.346;2023-08-21T04:15:29;21.20;;;13.32;;
81544;SDS011;70990;50.618;7.346;2023-08-21T04:17:55;18.38;;;11.80;;
81544;SDS011;70990;50.618;7.346;2023-08-21T04:20:22;19.50;;;13.25;;
81544;SDS011;70990;50.618;7.346;2023-08-21T04:22:49;17.50;;;10.18;;
81544;SDS011;70990;50.618;7.346;2023-08-21T04:25:15;18.67;;;11.70;;
81544;SDS011;70990;50.618;7.346;2023-08-21T04:27:42;16.58;;;11.15;;
81544;SDS011;70990;50.618;7.346;2023-08-21T04:30:09;18.33;;;11.02;;
81544;SDS011;70990;50.618;7.346;2023-08-21T04:32:37;16.33;;;10.70;;
81544;SDS011;70990;50.618;7.346;2023-08-21T04:35:04;15.65;;;10.73;;
81544;SDS011;70990;50.618;7.346;2023-08-21T04:37:31;17.00;;;10.85;;
81544;SDS011;70990;50.618;7.346;2023-08-21T04:39:58;18.90;;;11.77;;
81544;SDS011;70990;50.618;7.346;2023-08-21T04:42:25;16.15;;;11.73;;
81544;SDS011;70990;50.618;7.346;2023-08-21T04:44:52;15.95;;;10.63;;
81544;SDS011;70990;50.618;7.346;2023-08-21T04:49:51;16.65;;;11.38;;
81544;SDS011;70990;50.618;7.346;2023-08-21T04:52:18;17.85;;;11.23;;
81544;SDS011;70990;50.618;7.346;2023-08-21T04:54:46;17.95;;;11.65;;
81544;SDS011;70990;50.618;7.346;2023-08-21T04:57:14;19.23;;;10.73;;
81544;SDS011;70990;50.618;7.346;2023-08-21T04:59:41;16.20;;;11.35;;
81544;SDS011;70990;50.618;7.346;2023-08-21T05:02:07;19.95;;;11.73;;
81544;SDS011;70990;50.618;7.346;2023-08-21T05:04:35;18.13;;;11.25;;
81544;SDS011;70990;50.618;7.346;2023-08-21T05:07:04;20.52;;;11.23;;
81544;SDS011;70990;50.618;7.346;2023-08-21T05:09:31;17.17;;;11.23;;
81544;SDS011;70990;50.618;7.346;2023-08-21T05:11:58;17.20;;;11.32;;
81544;SDS011;70990;50.618;7.346;2023-08-21T05:14:25;16.27;;;10.70;;
81544;SDS011;70990;50.618;7.346;2023-08-21T05:16:52;16.95;;;10.98;;
81544;SDS011;70990;50.618;7.346;2023-08-21T05:19:20;15.52;;;10.55;;
81544;SDS011;70990;50.618;7.346;2023-08-21T05:21:47;17.48;;;11.88;;
81544;SDS011;70990;50.618;7.346;2023-08-21T05:24:15;19.80;;;11.77;;
81544;SDS011;70990;50.618;7.346;2023-08-21T05:26:48;18.20;;;11.55;;
81544;SDS011;70990;50.618;7.346;2023-08-21T05:29:14;17.45;;;11.32;;
81544;SDS011;70990;50.618;7.346;2023-08-21T05:31:41;16.35;;;11.57;;
81544;SDS011;70990;50.618;7.346;2023-08-21T05:34:08;16.27;;;11.48;;
81544;SDS011;70990;50.618;7.346;2023-08-21T05:36:34;18.10;;;11.95;;
81544;SDS011;70990;50.618;7.346;2023-08-21T05:39:02;15.82;;;11.05;;
81544;SDS011;70990;50.618;7.346;2023-08-21T05:41:30;16.88;;;10.77;;
81544;SDS011;70990;50.618;7.346;2023-08-21T05:43:56;18.33;;;10.48;;
81544;SDS011;70990;50.618;7.346;2023-08-21T05:46:24;18.00;;;11.30;;
81544;SDS011;70990;50.618;7.346;2023-08-21T05:48:51;18.70;;;11.10;;
81544;SDS011;70990;50.618;7.346;2023-08-21T05:51:18;18.13;;;10.38;;
81544;SDS011;70990;50.618;7.346;2023-08-21T05:53:44;20.80;;;10.68;;
81544;SDS011;70990;50.618;7.346;2023-08-21T05:56:11;16.88;;;10.20;;
81544;SDS011;70990;50.618;7.346;2023-08-21T05:58:38;18.80;;;11.93;;
81544;SDS011;70990;50.618;7.346;2023-08-21T06:01:06;17.20;;;11.30;;
81544;SDS011;70990;50.618;7.346;2023-08-21T06:03:33;16.60;;;11.05;;
81544;SDS011;70990;50.618;7.346;2023-08-21T06:06:20;17.25;;;11.65;;
81544;SDS011;70990;50.618;7.346;2023-08-21T06:08:47;15.50;;;10.73;;
81544;SDS011;70990;50.618;7.346;2023-08-21T06:11:13;15.15;;;11.40;;
81544;SDS011;70990;50.618;7.346;2023-08-21T06:13:40;17.60;;;11.63;;
81544;SDS011;70990;50.618;7.346;2023-08-21T06:16:06;17.10;;;11.55;;
81544;SDS011;70990;50.618;7.346;2023-08-21T06:18:36;18.05;;;10.85;;
81544;SDS011;70990;50.618;7.346;2023-08-21T06:21:02;13.57;;;10.23;;
81544;SDS011;70990;50.618;7.346;2023-08-21T06:23:29;15.15;;;11.40;;
81544;SDS011;70990;50.618;7.346;2023-08-21T06:25:56;18.17;;;11.50;;
81544;SDS011;70990;50.618;7.346;2023-08-21T06:28:23;16.40;;;10.93;;
81544;SDS011;70990;50.618;7.346;2023-08-21T06:30:55;17.15;;;10.52;;
81544;SDS011;70990;50.618;7.346;2023-08-21T06:33:22;17.70;;;11.27;;
81544;SDS011;70990;50.618;7.346;2023-08-21T06:35:49;15.98;;;11.10;;
81544;SDS011;70990;50.618;7.346;2023-08-21T06:38:16;17.77;;;11.38;;
81544;SDS011;70990;50.618;7.346;2023-08-21T06:40:44;15.25;;;10.82;;
81544;SDS011;70990;50.618;7.346;2023-08-21T06:43:11;18.63;;;11.13;;
81544;SDS011;70990;50.618;7.346;2023-08-21T06:45:42;14.98;;;11.10;;
81544;SDS011;70990;50.618;7.346;2023-08-21T06:48:09;16.15;;;11.93;;
81544;SDS011;70990;50.618;7.346;2023-08-21T06:50:36;17.50;;;11.30;;
81544;SDS011;70990;50.618;7.346;2023-08-21T06:53:18;12.95;;;9.73;;
81544;SDS011;70990;50.618;7.346;2023-08-21T06:55:44;14.88;;;10.05;;
81544;SDS011;70990;50.618;7.346;2023-08-21T06:58:11;14.50;;;10.20;;
81544;SDS011;70990;50.618;7.346;2023-08-21T07:00:38;14.10;;;10.70;;
81544;SDS011;70990;50.618;7.346;2023-08-21T07:03:08;14.00;;;9.82;;
81544;SDS011;70990;50.618;7.346;2023-08-21T07:05:38;15.13;;;9.50;;
81544;SDS011;70990;50.618;7.346;2023-08-21T07:08:06;13.48;;;10.00;;
81544;SDS011;70990;50.618;7.346;2023-08-21T07:10:38;13.52;;;9.98;;
81544;SDS011;70990;50.618;7.346;2023-08-21T07:13:05;12.85;;;9.60;;
81544;SDS011;70990;50.618;7.346;2023-08-21T07:15:31;14.93;;;9.98;;
81544;SDS011;70990;50.618;7.346;2023-08-21T07:17:58;14.20;;;9.02;;
81544;SDS011;70990;50.618;7.346;2023-08-21T07:20:24;16.33;;;9.73;;
81544;SDS011;70990;50.618;7.346;2023-08-21T07:22:51;15.05;;;9.30;;
81544;SDS011;70990;50.618;7.346;2023-08-21T07:25:18;15.77;;;9.25;;
81544;SDS011;70990;50.618;7.346;2023-08-21T07:27:47;13.45;;;8.60;;
81544;SDS011;70990;50.618;7.346;2023-08-21T07:30:15;11.77;;;7.82;;
81544;SDS011;70990;50.618;7.346;2023-08-21T07:32:43;15.15;;;8.73;;
81544;SDS011;70990;50.618;7.346;2023-08-21T07:35:09;16.50;;;9.10;;
81544;SDS011;70990;50.618;7.346;2023-08-21T07:37:36;13.45;;;9.68;;
81544;SDS011;70990;50.618;7.346;2023-08-21T07:40:04;12.25;;;8.93;;
81544;SDS011;70990;50.618;7.346;2023-08-21T07:42:31;13.13;;;8.93;;
81544;SDS011;70990;50.618;7.346;2023-08-21T07:45:00;14.02;;;9.00;;
81544;SDS011;70990;50.618;7.346;2023-08-21T07:47:27;14.07;;;8.43;;
81544;SDS011;70990;50.618;7.346;2023-08-21T07:49:54;13.82;;;9.05;;
81544;SDS011;70990;50.618;7.346;2023-08-21T07:52:22;12.90;;;8.85;;
81544;SDS011;70990;50.618;7.346;2023-08-21T07:54:52;14.55;;;8.95;;
81544;SDS011;70990;50.618;7.346;2023-08-21T07:57:19;13.98;;;9.10;;
81544;SDS011;70990;50.618;7.346;2023-08-21T07:59:46;12.18;;;8.10;;
81544;SDS011;70990;50.618;7.346;2023-08-21T08:02:12;13.07;;;8.18;;
81544;SDS011;70990;50.618;7.346;2023-08-21T08:04:39;10.77;;;7.82;;
81544;SDS011;70990;50.618;7.346;2023-08-21T08:07:07;12.07;;;8.82;;
81544;SDS011;70990;50.618;7.346;2023-08-21T08:09:34;12.98;;;7.75;;
81544;SDS011;70990;50.618;7.346;2023-08-21T08:12:00;10.98;;;8.05;;
81544;SDS011;70990;50.618;7.346;2023-08-21T08:14:27;12.25;;;8.43;;
81544;SDS011;70990;50.618;7.346;2023-08-21T08:16:53;11.70;;;7.50;;
81544;SDS011;70990;50.618;7.346;2023-08-21T08:19:23;12.52;;;7.65;;
81544;SDS011;70990;50.618;7.346;2023-08-21T08:21:49;12.10;;;7.85;;
81544;SDS011;70990;50.618;7.346;2023-08-21T08:24:16;15.18;;;8.35;;
81544;SDS011;70990;50.618;7.346;2023-08-21T08:26:44;12.27;;;7.80;;
81544;SDS011;70990;50.618;7.346;2023-08-21T08:29:11;10.18;;;6.43;;
81544;SDS011;70990;50.618;7.346;2023-08-21T08:31:41;9.80;;;6.25;;
81544;SDS011;70990;50.618;7.346;2023-08-21T08:34:07;9.13;;;6.40;;
81544;SDS011;70990;50.618;7.346;2023-08-21T08:36:35;10.77;;;7.07;;
81544;SDS011;70990;50.618;7.346;2023-08-21T08:39:02;12.20;;;6.63;;
81544;SDS011;70990;50.618;7.346;2023-08-21T08:41:30;11.93;;;7.15;;
81544;SDS011;70990;50.618;7.346;2023-08-21T08:44:04;10.98;;;6.55;;
81544;SDS011;70990;50.618;7.346;2023-08-21T08:46:32;11.15;;;6.82;;
81544;SDS011;70990;50.618;7.346;2023-08-21T08:48:59;10.55;;;6.28;;
81544;SDS011;70990;50.618;7.346;2023-08-21T08:51:26;11.48;;;7.35;;
81544;SDS011;70990;50.618;7.346;2023-08-21T08:56:24;8.82;;;6.35;;
81544;SDS011;70990;50.618;7.346;2023-08-21T08:58:52;9.27;;;6.28;;
81544;SDS011;70990;50.618;7.346;2023-08-21T09:01:19;9.43;;;6.05;;
81544;SDS011;70990;50.618;7.346;2023-08-21T09:03:46;11.85;;;6.65;;
81544;SDS011;70990;50.618;7.346;2023-08-21T09:06:12;9.48;;;6.20;;
81544;SDS011;70990;50.618;7.346;2023-08-21T09:08:42;11.00;;;6.30;;
81544;SDS011;70990;50.618;7.346;2023-08-21T09:11:19;10.20;;;6.25;;
81544;SDS011;70990;50.618;7.346;2023-08-21T09:13:50;10.68;;;6.70;;
81544;SDS011;70990;50.618;7.346;2023-08-21T09:16:19;9.10;;;5.88;;
81544;SDS011;70990;50.618;7.346;2023-08-21T09:18:54;9.05;;;5.93;;
81544;SDS011;70990;50.618;7.346;2023-08-21T09:21:22;8.23;;;5.90;;
81544;SDS011;70990;50.618;7.346;2023-08-21T09:23:55;9.77;;;6.25;;
81544;SDS011;70990;50.618;7.346;2023-08-21T09:26:23;9.07;;;5.95;;
81544;SDS011;70990;50.618;7.346;2023-08-21T09:28:51;8.88;;;5.40;;
81544;SDS011;70990;50.618;7.346;2023-08-21T09:31:31;9.60;;;6.38;;
81544;SDS011;70990;50.618;7.346;2023-08-21T09:34:01;9.38;;;6.15;;
81544;SDS011;70990;50.618;7.346;2023-08-21T09:36:28;8.98;;;6.97;;
81544;SDS011;70990;50.618;7.346;2023-08-21T09:38:55;14.13;;;7.07;;
81544;SDS011;70990;50.618;7.346;2023-08-21T09:41:22;9.48;;;6.40;;
81544;SDS011;70990;50.618;7.346;2023-08-21T09:43:52;9.63;;;6.00;;
81544;SDS011;70990;50.618;7.346;2023-08-21T09:46:26;11.00;;;6.20;;
81544;SDS011;70990;50.618;7.346;2023-08-21T09:48:54;9.00;;;6.45;;
81544;SDS011;70990;50.618;7.346;2023-08-21T09:51:21;11.77;;;6.90;;
81544;SDS011;70990;50.618;7.346;2023-08-21T09:53:48;9.50;;;6.70;;
81544;SDS011;70990;50.618;7.346;2023-08-21T09:56:17;9.98;;;6.40;;
81544;SDS011;70990;50.618;7.346;2023-08-21T09:58:46;10.15;;;6.53;;
81544;SDS011;70990;50.618;7.346;2023-08-21T10:01:15;12.43;;;8.20;;
81544;SDS011;70990;50.618;7.346;2023-08-21T10:03:48;9.80;;;6.70;;
81544;SDS011;70990;50.618;7.346;2023-08-21T10:06:18;9.93;;;6.60;;
81544;SDS011;70990;50.618;7.346;2023-08-21T10:08:48;10.68;;;7.03;;
81544;SDS011;70990;50.618;7.346;2023-08-21T10:11:20;10.43;;;6.90;;
81544;SDS011;70990;50.618;7.346;2023-08-21T10:13:47;10.73;;;6.88;;
81544;SDS011;70990;50.618;7.346;2023-08-21T10:16:15;8.48;;;6.03;;
81544;SDS011;70990;50.618;7.346;2023-08-21T10:18:43;7.90;;;6.20;;
81544;SDS011;70990;50.618;7.346;2023-08-21T10:21:15;8.70;;;5.88;;
81544;SDS011;70990;50.618;7.346;2023-08-21T10:23:54;9.50;;;6.53;;
81544;SDS011;70990;50.618;7.346;2023-08-21T10:26:25;8.98;;;6.18;;
81544;SDS011;70990;50.618;7.346;2023-08-21T10:29:00;10.05;;;6.53;;
81544;SDS011;70990;50.618;7.346;2023-08-21T10:31:35;9.07;;;5.88;;
81544;SDS011;70990;50.618;7.346;2023-08-21T10:34:04;12.50;;;6.20;;
81544;SDS011;70990;50.618;7.346;2023-08-21T10:39:16;10.40;;;6.20;;
81544;SDS011;70990;50.618;7.346;2023-08-21T10:41:53;10.38;;;6.05;;
81544;SDS011;70990;50.618;7.346;2023-08-21T10:50:05;8.93;;;6.43;;
81544;SDS011;70990;50.618;7.346;2023-08-21T10:52:40;12.02;;;6.43;;
81544;SDS011;70990;50.618;7.346;2023-08-21T10:55:15;9.35;;;6.63;;
81544;SDS011;70990;50.618;7.346;2023-08-21T10:57:42;9.30;;;5.95;;
81544;SDS011;70990;50.618;7.346;2023-08-21T11:00:13;13.30;;;8.13;;
81544;SDS011;70990;50.618;7.346;2023-08-21T11:02:42;11.63;;;6.20;;
81544;SDS011;70990;50.618;7.346;2023-08-21T11:05:10;10.43;;;6.00;;
81544;SDS011;70990;50.618;7.346;2023-08-21T11:07:41;10.88;;;5.38;;
81544;SDS011;70990;50.618;7.346;2023-08-21T11:10:13;8.85;;;5.50;;
81544;SDS011;70990;50.618;7.346;2023-08-21T11:12:48;11.60;;;5.45;;
81544;SDS011;70990;50.618;7.346;2023-08-21T11:15:23;9.80;;;5.38;;
81544;SDS011;70990;50.618;7.346;2023-08-21T11:17:55;7.10;;;4.68;;
81544;SDS011;70990;50.618;7.346;2023-08-21T11:20:30;9.60;;;5.38;;
81544;SDS011;70990;50.618;7.346;2023-08-21T11:23:05;8.95;;;6.00;;
81544;SDS011;70990;50.618;7.346;2023-08-21T11:25:34;9.63;;;5.28;;
81544;SDS011;70990;50.618;7.346;2023-08-21T11:28:04;9.77;;;5.57;;
81544;SDS011;70990;50.618;7.346;2023-08-21T11:30:32;8.65;;;5.53;;
81544;SDS011;70990;50.618;7.346;2023-08-21T11:33:09;8.07;;;4.63;;
81544;SDS011;70990;50.618;7.346;2023-08-21T11:35:37;9.13;;;4.78;;
81544;SDS011;70990;50.618;7.346;2023-08-21T11:38:05;7.97;;;4.28;;
81544;SDS011;70990;50.618;7.346;2023-08-21T11:40:35;7.15;;;4.75;;
81544;SDS011;70990;50.618;7.346;2023-08-21T11:43:03;9.77;;;4.95;;
81544;SDS011;70990;50.618;7.346;2023-08-21T11:45:33;9.38;;;5.07;;
81544;SDS011;70990;50.618;7.346;2023-08-21T11:48:19;8.38;;;5.10;;
81544;SDS011;70990;50.618;7.346;2023-08-21T11:50:47;10.23;;;5.57;;
81544;SDS011;70990;50.618;7.346;2023-08-21T11:53:14;11.80;;;5.63;;
81544;SDS011;70990;50.618;7.346;2023-08-21T11:55:40;8.77;;;5.30;;
81544;SDS011;70990;50.618;7.346;2023-08-21T11:58:07;9.90;;;5.45;;
81544;SDS011;70990;50.618;7.346;2023-08-21T12:00:34;8.30;;;5.18;;
81544;SDS011;70990;50.618;7.346;2023-08-21T12:03:00;14.32;;;5.55;;
81544;SDS011;70990;50.618;7.346;2023-08-21T12:05:28;9.05;;;5.15;;
81544;SDS011;70990;50.618;7.346;2023-08-21T12:07:55;8.80;;;5.80;;
81544;SDS011;70990;50.618;7.346;2023-08-21T12:12:56;9.27;;;6.03;;
81544;SDS011;70990;50.618;7.346;2023-08-21T12:15:23;7.57;;;4.60;;
81544;SDS011;70990;50.618;7.346;2023-08-21T12:17:50;9.68;;;4.90;;
81544;SDS011;70990;50.618;7.346;2023-08-21T12:20:16;10.70;;;5.97;;
81544;SDS011;70990;50.618;7.346;2023-08-21T12:22:43;7.25;;;5.15;;
81544;SDS011;70990;50.618;7.346;2023-08-21T12:25:10;9.35;;;5.35;;
81544;SDS011;70990;50.618;7.346;2023-08-21T12:27:36;9.18;;;5.38;;
81544;SDS011;70990;50.618;7.346;2023-08-21T12:30:04;10.13;;;5.63;;
81544;SDS011;70990;50.618;7.346;2023-08-21T12:32:32;8.82;;;5.70;;
81544;SDS011;70990;50.618;7.346;2023-08-21T12:34:59;10.02;;;6.10;;
81544;SDS011;70990;50.618;7.346;2023-08-21T12:37:25;11.82;;;6.03;;
81544;SDS011;70990;50.618;7.346;2023-08-21T12:39:53;10.35;;;6.30;;
81544;SDS011;70990;50.618;7.346;2023-08-21T12:42:20;13.15;;;6.15;;
81544;SDS011;70990;50.618;7.346;2023-08-21T12:44:46;13.52;;;6.20;;
81544;SDS011;70990;50.618;7.346;2023-08-21T12:47:13;12.57;;;6.53;;
81544;SDS011;70990;50.618;7.346;2023-08-21T12:49:40;11.35;;;6.63;;
81544;SDS011;70990;50.618;7.346;2023-08-21T12:52:06;10.80;;;6.53;;
81544;SDS011;70990;50.618;7.346;2023-08-21T12:54:36;12.80;;;6.07;;
81544;SDS011;70990;50.618;7.346;2023-08-21T12:57:03;10.07;;;5.95;;
81544;SDS011;70990;50.618;7.346;2023-08-21T12:59:29;10.07;;;6.40;;
81544;SDS011;70990;50.618;7.346;2023-08-21T13:01:58;10.48;;;5.82;;
81544;SDS011;70990;50.618;7.346;2023-08-21T13:04:25;13.27;;;8.00;;
81544;SDS011;70990;50.618;7.346;2023-08-21T13:06:52;11.82;;;7.40;;
81544;SDS011;70990;50.618;7.346;2023-08-21T13:09:19;10.18;;;6.53;;
81544;SDS011;70990;50.618;7.346;2023-08-21T13:11:45;10.55;;;5.93;;
81544;SDS011;70990;50.618;7.346;2023-08-21T13:14:12;10.43;;;6.47;;
81544;SDS011;70990;50.618;7.346;2023-08-21T13:16:39;10.13;;;6.45;;
81544;SDS011;70990;50.618;7.346;2023-08-21T13:19:05;12.52;;;6.70;;
81544;SDS011;70990;50.618;7.346;2023-08-21T13:21:32;9.85;;;5.72;;
81544;SDS011;70990;50.618;7.346;2023-08-21T13:23:58;10.85;;;5.68;;
81544;SDS011;70990;50.618;7.346;2023-08-21T13:26:30;11.82;;;6.30;;
81544;SDS011;70990;50.618;7.346;2023-08-21T13:28:57;14.93;;;6.65;;
81544;SDS011;70990;50.618;7.346;2023-08-21T13:31:23;12.38;;;7.78;;
81544;SDS011;70990;50.618;7.346;2023-08-21T13:33:50;10.90;;;6.88;;
81544;SDS011;70990;50.618;7.346;2023-08-21T13:36:17;11.48;;;7.18;;
81544;SDS011;70990;50.618;7.346;2023-08-21T13:38:44;17.58;;;6.78;;
81544;SDS011;70990;50.618;7.346;2023-08-21T13:41:11;12.75;;;6.70;;
81544;SDS011;70990;50.618;7.346;2023-08-21T13:43:37;11.43;;;6.05;;
81544;SDS011;70990;50.618;7.346;2023-08-21T13:46:06;9.90;;;5.53;;
81544;SDS011;70990;50.618;7.346;2023-08-21T13:48:32;10.80;;;5.28;;
81544;SDS011;70990;50.618;7.346;2023-08-21T13:50:59;8.57;;;4.72;;
81544;SDS011;70990;50.618;7.346;2023-08-21T13:53:25;9.02;;;5.40;;
81544;SDS011;70990;50.618;7.346;2023-08-21T13:55:52;10.27;;;5.43;;
81544;SDS011;70990;50.618;7.346;2023-08-21T13:58:19;9.55;;;5.15;;
81544;SDS011;70990;50.618;7.346;2023-08-21T14:00:46;11.38;;;6.07;;
81544;SDS011;70990;50.618;7.346;2023-08-21T14:03:12;14.52;;;7.65;;
81544;SDS011;70990;50.618;7.346;2023-08-21T14:05:39;10.10;;;6.35;;
81544;SDS011;70990;50.618;7.346;2023-08-21T14:08:05;15.98;;;7.55;;
81544;SDS011;70990;50.618;7.346;2023-08-21T14:10:49;12.90;;;7.15;;
81544;SDS011;70990;50.618;7.346;2023-08-21T14:13:27;12.05;;;7.28;;
81544;SDS011;70990;50.618;7.346;2023-08-21T14:15:53;12.43;;;7.60;;
81544;SDS011;70990;50.618;7.346;2023-08-21T14:18:20;14.82;;;6.50;;
81544;SDS011;70990;50.618;7.346;2023-08-21T14:20:47;14.60;;;5.95;;
81544;SDS011;70990;50.618;7.346;2023-08-21T14:23:13;27.23;;;9.45;;
81544;SDS011;70990;50.618;7.346;2023-08-21T14:25:40;20.80;;;8.50;;
81544;SDS011;70990;50.618;7.346;2023-08-21T14:28:06;39.03;;;13.32;;
81544;SDS011;70990;50.618;7.346;2023-08-21T14:30:33;11.68;;;6.32;;
81544;SDS011;70990;50.618;7.346;2023-08-21T14:33:00;10.63;;;6.47;;
81544;SDS011;70990;50.618;7.346;2023-08-21T14:35:26;13.98;;;7.03;;
81544;SDS011;70990;50.618;7.346;2023-08-21T14:37:53;10.35;;;5.07;;
81544;SDS011;70990;50.618;7.346;2023-08-21T14:40:20;10.65;;;6.43;;
81544;SDS011;70990;50.618;7.346;2023-08-21T14:42:55;11.23;;;5.95;;
81544;SDS011;70990;50.618;7.346;2023-08-21T14:45:22;11.05;;;5.22;;
81544;SDS011;70990;50.618;7.346;2023-08-21T14:47:51;11.65;;;6.30;;
81544;SDS011;70990;50.618;7.346;2023-08-21T14:50:17;14.65;;;7.65;;
81544;SDS011;70990;50.618;7.346;2023-08-21T14:52:44;9.57;;;5.72;;
81544;SDS011;70990;50.618;7.346;2023-08-21T14:55:11;9.02;;;5.65;;